createdAt,value
2022-09-30T04:00:31.944Z,989.65
2022-09-30T04:05:31.596Z,989.80
2022-09-30T04:10:31.477Z,989.82
2022-09-30T04:15:38.486Z,989.94
2022-09-30T04:20:31.368Z,989.96
2022-09-30T04:25:31.313Z,989.87
2022-09-30T04:30:33.554Z,989.97
2022-09-30T04:35:31.235Z,989.98
2022-09-30T04:40:31.160Z,990.03
2022-09-30T04:45:31.146Z,990.12
2022-09-30T04:50:31.054Z,990.19
2022-09-30T04:55:31.019Z,990.22
2022-09-30T05:00:30.994Z,990.31
2022-09-30T05:05:30.889Z,990.26
2022-09-30T05:10:30.833Z,990.27
2022-09-30T05:15:30.876Z,990.32
2022-09-30T05:20:30.734Z,990.33
2022-09-30T05:25:30.681Z,990.46
2022-09-30T05:30:30.632Z,990.51
2022-09-30T05:35:30.586Z,990.38
2022-09-30T05:40:30.519Z,990.37
2022-09-30T05:45:30.463Z,990.50
2022-09-30T05:50:30.413Z,990.59
2022-09-30T05:55:30.379Z,990.59
2022-09-30T06:00:30.304Z,990.73
2022-09-30T06:05:30.245Z,990.80
2022-09-30T06:10:30.190Z,990.91
2022-09-30T06:15:30.169Z,990.92
2022-09-30T06:20:30.083Z,990.98
2022-09-30T06:25:30.034Z,991.01
2022-09-30T06:30:34.921Z,991.02
2022-09-30T06:35:29.945Z,991.14
2022-09-30T06:40:29.870Z,991.21
2022-09-30T06:45:32.963Z,991.28
2022-09-30T06:50:29.876Z,991.26
2022-09-30T06:55:29.715Z,991.39
2022-09-30T07:00:29.650Z,991.43
2022-09-30T07:05:29.610Z,991.47
2022-09-30T07:10:29.527Z,991.50
2022-09-30T07:15:29.505Z,991.62
2022-09-30T07:20:29.443Z,991.65
2022-09-30T07:25:29.372Z,991.68
2022-09-30T07:30:29.331Z,991.72
2022-09-30T07:35:29.324Z,991.78
2022-09-30T07:40:29.209Z,991.65
2022-09-30T07:45:29.227Z,991.78
2022-09-30T07:50:29.123Z,991.71
2022-09-30T07:55:29.066Z,991.75
2022-09-30T08:00:44.361Z,991.88
2022-09-30T08:05:29.960Z,991.87
2022-09-30T08:10:28.886Z,991.90
2022-09-30T08:15:28.862Z,991.91
2022-09-30T08:20:28.797Z,991.87
2022-09-30T08:25:28.717Z,991.83
2022-09-30T08:30:28.686Z,991.89
2022-09-30T08:35:28.631Z,991.97
2022-09-30T08:40:28.574Z,991.94
2022-09-30T08:45:28.623Z,992.00
2022-09-30T08:50:28.443Z,991.94
2022-09-30T08:55:28.659Z,991.86
2022-09-30T09:00:28.371Z,991.92
2022-09-30T09:05:28.280Z,991.95
2022-09-30T09:10:28.228Z,992.05
2022-09-30T09:15:28.215Z,992.05
2022-09-30T09:20:28.112Z,992.06
2022-09-30T09:25:28.065Z,992.06
2022-09-30T09:30:28.011Z,992.03
2022-09-30T09:35:27.974Z,991.94
2022-09-30T09:40:27.890Z,992.04
2022-09-30T09:45:27.995Z,991.96
2022-09-30T09:50:27.787Z,991.82
2022-09-30T09:55:27.747Z,991.84
2022-09-30T10:00:27.677Z,991.88
2022-09-30T10:05:27.656Z,991.86
2022-09-30T10:10:27.556Z,991.92
2022-09-30T10:15:27.589Z,991.91
2022-09-30T10:20:34.705Z,991.86
2022-09-30T10:25:27.399Z,991.85
2022-09-30T10:30:27.348Z,991.80
2022-09-30T10:35:27.355Z,991.86
2022-09-30T10:40:27.251Z,991.82
2022-09-30T10:45:27.176Z,991.84
2022-09-30T10:50:27.130Z,991.75
2022-09-30T10:55:27.072Z,991.75
2022-09-30T11:00:27.019Z,991.85
2022-09-30T11:05:26.975Z,991.82
2022-09-30T11:10:26.894Z,991.83
2022-09-30T11:15:26.878Z,991.86
2022-09-30T11:20:26.807Z,991.93
2022-09-30T11:25:26.728Z,991.93
2022-09-30T11:30:26.684Z,991.99
2022-09-30T11:35:26.691Z,991.98
2022-09-30T11:40:26.573Z,992.01
2022-09-30T11:45:26.618Z,991.88
2022-09-30T11:50:26.520Z,991.90
2022-09-30T11:55:26.441Z,991.94
2022-09-30T12:00:26.389Z,991.83
2022-09-30T12:05:26.503Z,991.85
2022-09-30T12:10:26.244Z,991.81
2022-09-30T12:15:26.286Z,991.74
2022-09-30T12:20:26.180Z,991.67
2022-09-30T12:25:26.088Z,991.54
2022-09-30T12:30:26.045Z,991.51
2022-09-30T12:35:26.052Z,991.46
2022-09-30T12:40:25.909Z,991.49
2022-09-30T12:45:25.867Z,991.47
2022-09-30T12:50:25.811Z,991.32
2022-09-30T12:55:25.843Z,991.26
2022-09-30T13:00:25.733Z,991.30
2022-09-30T13:05:25.678Z,991.17
2022-09-30T13:10:25.571Z,991.09
2022-09-30T13:15:25.694Z,991.14
2022-09-30T13:20:25.472Z,991.10
2022-09-30T13:25:25.420Z,990.99
2022-09-30T13:30:25.374Z,990.97
2022-09-30T13:35:25.330Z,991.02
2022-09-30T13:40:37.867Z,991.00
2022-09-30T13:45:26.276Z,991.00
2022-09-30T13:50:25.153Z,990.93
2022-09-30T13:55:25.133Z,990.86
2022-09-30T14:00:25.063Z,990.88
2022-09-30T14:05:25.001Z,990.85
2022-09-30T14:10:24.964Z,990.84
2022-09-30T14:15:24.884Z,990.77
2022-09-30T14:20:24.854Z,990.67
2022-09-30T14:25:24.789Z,990.62
2022-09-30T14:30:24.700Z,990.65
2022-09-30T14:35:24.689Z,990.59
2022-09-30T14:40:24.623Z,990.54
2022-09-30T14:45:24.642Z,990.41
2022-09-30T14:50:24.480Z,990.47
2022-09-30T14:55:24.463Z,990.41
2022-09-30T15:00:24.404Z,990.38
2022-09-30T15:05:24.327Z,990.25
2022-09-30T15:10:24.270Z,990.33
2022-09-30T15:15:24.246Z,990.26
2022-09-30T15:20:24.154Z,990.14
2022-09-30T15:25:24.106Z,990.21
2022-09-30T15:30:24.072Z,990.15
2022-09-30T15:35:24.050Z,990.13
2022-09-30T15:40:23.957Z,990.17
2022-09-30T15:45:23.975Z,990.12
2022-09-30T15:50:23.835Z,990.21
2022-09-30T15:55:23.821Z,990.18
2022-09-30T16:00:23.731Z,990.24
2022-09-30T16:05:23.713Z,990.34
2022-09-30T16:10:23.646Z,990.30
2022-09-30T16:15:23.574Z,990.29
2022-09-30T16:20:31.558Z,990.37
2022-09-30T16:25:23.432Z,990.41
2022-09-30T16:30:23.389Z,990.46
2022-09-30T16:35:23.357Z,990.50
2022-09-30T16:40:23.281Z,990.55
2022-09-30T16:45:23.417Z,990.44
2022-09-30T16:50:23.166Z,990.55
2022-09-30T16:55:23.126Z,990.54
2022-09-30T17:00:23.068Z,990.60
2022-09-30T17:05:23.037Z,990.65
2022-09-30T17:10:22.940Z,990.46
2022-09-30T17:15:22.921Z,990.45
2022-09-30T17:20:22.832Z,990.48
2022-09-30T17:25:22.772Z,990.55
2022-09-30T17:30:22.721Z,990.47
2022-09-30T17:35:22.685Z,990.56
2022-09-30T17:40:22.612Z,990.62
2022-09-30T17:45:22.554Z,990.58
2022-09-30T17:50:22.497Z,990.53
2022-09-30T17:55:22.494Z,990.49
2022-09-30T18:00:22.387Z,990.51
2022-09-30T18:05:22.329Z,990.53
2022-09-30T18:10:22.282Z,990.44
2022-09-30T18:15:22.236Z,990.42
2022-09-30T18:20:24.856Z,990.41
2022-09-30T18:25:22.107Z,990.35
2022-09-30T18:30:22.058Z,990.46
2022-09-30T18:35:22.018Z,990.54
2022-09-30T18:40:21.945Z,990.56
2022-09-30T18:45:21.888Z,990.59
2022-09-30T18:50:21.837Z,990.60
2022-09-30T18:55:21.804Z,990.65
2022-09-30T19:00:21.722Z,990.66
2022-09-30T19:05:21.675Z,990.71
2022-09-30T19:10:21.665Z,990.67
2022-09-30T19:15:21.577Z,990.68
2022-09-30T19:20:21.505Z,990.60
2022-09-30T19:25:21.450Z,990.58
2022-09-30T19:30:21.391Z,990.54
2022-09-30T19:35:28.959Z,990.49
2022-09-30T19:40:22.427Z,990.39
2022-09-30T19:45:24.394Z,990.40
2022-09-30T19:50:21.180Z,990.33
2022-09-30T19:55:21.148Z,990.48
2022-09-30T20:00:21.071Z,990.41
2022-09-30T20:05:21.021Z,990.45
2022-09-30T20:10:20.966Z,990.42
2022-09-30T20:15:20.933Z,990.51
2022-09-30T20:20:20.857Z,990.54
2022-09-30T20:25:20.799Z,990.60
2022-09-30T20:30:20.751Z,990.61
2022-09-30T20:35:20.727Z,990.54
2022-09-30T20:40:20.644Z,990.50
2022-09-30T20:45:20.593Z,990.29
2022-09-30T20:50:20.542Z,990.13
2022-09-30T20:55:20.502Z,990.04
2022-09-30T21:00:20.430Z,989.94
2022-09-30T21:05:20.377Z,989.86
2022-09-30T21:10:20.321Z,989.88
2022-09-30T21:15:20.292Z,989.86
2022-09-30T21:20:20.215Z,989.85
2022-09-30T21:25:20.164Z,989.64
2022-09-30T21:30:20.110Z,989.58
2022-09-30T21:35:20.072Z,989.57
2022-09-30T21:40:20.008Z,989.59
2022-09-30T21:45:19.950Z,989.60
2022-09-30T21:50:19.892Z,989.45
2022-09-30T21:55:19.861Z,989.51
2022-09-30T22:00:19.790Z,989.43
2022-09-30T22:05:19.733Z,989.40
2022-09-30T22:10:19.682Z,989.37
2022-09-30T22:15:19.746Z,989.36
2022-09-30T22:20:19.573Z,989.31
2022-09-30T22:25:26.868Z,989.30
2022-09-30T22:30:19.550Z,989.30
2022-09-30T22:35:19.430Z,989.26
2022-09-30T22:40:19.357Z,989.23
2022-09-30T22:45:19.299Z,989.05
2022-09-30T22:50:19.248Z,989.02
2022-09-30T22:55:19.212Z,989.07
2022-09-30T23:00:19.157Z,989.00
2022-09-30T23:05:19.088Z,988.99
2022-09-30T23:10:19.034Z,988.94
2022-09-30T23:15:19.029Z,988.81
2022-09-30T23:20:18.936Z,988.75
2022-09-30T23:25:18.875Z,988.66
